createdAt,value
2022-09-07T00:00:51.788Z,4.45
2022-09-07T00:03:19.922Z,4.50
2022-09-07T00:05:49.458Z,3.95
2022-09-07T00:08:18.688Z,4.53
2022-09-07T00:11:00.593Z,4.80
2022-09-07T00:13:30.451Z,4.78
2022-09-07T00:15:58.240Z,4.82
2022-09-07T00:18:26.067Z,4.55
2022-09-07T00:21:01.706Z,4.38
2022-09-07T00:23:30.510Z,4.50
2022-09-07T00:26:13.958Z,4.40
2022-09-07T00:28:42.271Z,4.40
2022-09-07T00:31:28.683Z,4.57
2022-09-07T00:33:59.302Z,4.65
2022-09-07T00:36:27.401Z,4.60
2022-09-07T00:38:54.878Z,4.43
2022-09-07T00:41:23.884Z,4.80
2022-09-07T00:43:59.864Z,4.90
2022-09-07T00:46:34.291Z,4.78
2022-09-07T00:49:24.242Z,4.68
2022-09-07T00:51:57.958Z,4.75
2022-09-07T00:54:34.352Z,5.10
2022-09-07T00:57:01.721Z,4.57
2022-09-07T00:59:41.902Z,4.40
2022-09-07T01:02:09.683Z,4.68
2022-09-07T01:04:37.625Z,4.53
2022-09-07T01:07:05.997Z,4.90
2022-09-07T01:09:33.669Z,4.70
2022-09-07T01:12:02.510Z,4.47
2022-09-07T01:14:33.631Z,4.53
2022-09-07T01:17:03.510Z,4.88
2022-09-07T01:19:51.834Z,4.43
2022-09-07T01:22:19.072Z,4.45
2022-09-07T01:25:04.703Z,4.25
2022-09-07T01:27:49.992Z,4.40
2022-09-07T01:30:19.709Z,5.15
2022-09-07T01:33:11.035Z,5.10
2022-09-07T01:36:06.079Z,5.07
2022-09-07T01:38:48.015Z,4.75
2022-09-07T01:41:39.056Z,4.95
2022-09-07T01:44:25.316Z,4.97
2022-09-07T01:47:04.667Z,4.93
2022-09-07T01:49:51.475Z,4.53
2022-09-07T01:52:38.513Z,4.63
2022-09-07T01:55:16.057Z,4.70
2022-09-07T01:57:49.094Z,4.80
2022-09-07T02:00:19.835Z,4.55
2022-09-07T02:03:07.985Z,4.90
2022-09-07T02:05:43.381Z,5.10
2022-09-07T02:08:15.239Z,4.60
2022-09-07T02:10:50.922Z,5.07
2022-09-07T02:13:26.952Z,4.68
2022-09-07T02:16:02.004Z,4.65
2022-09-07T02:18:35.478Z,4.43
2022-09-07T02:21:04.552Z,4.90
2022-09-07T02:23:41.553Z,4.60
2022-09-07T02:26:17.801Z,5.00
2022-09-07T02:28:45.228Z,4.43
2022-09-07T02:31:12.471Z,4.40
2022-09-07T02:33:39.871Z,3.92
2022-09-07T02:36:07.590Z,5.07
2022-09-07T02:38:35.995Z,4.22
2022-09-07T02:41:05.384Z,4.93
2022-09-07T02:43:33.491Z,4.75
2022-09-07T02:46:06.776Z,4.22
2022-09-07T02:48:57.478Z,4.57
2022-09-07T02:51:56.059Z,4.25
2022-09-07T02:54:34.166Z,4.18
2022-09-07T02:57:28.304Z,4.05
2022-09-07T03:00:07.737Z,3.85
2022-09-07T03:02:53.834Z,4.20
2022-09-07T03:05:39.209Z,3.92
2022-09-07T03:08:17.349Z,3.95
2022-09-07T03:10:45.288Z,4.22
2022-09-07T03:13:33.177Z,4.30
2022-09-07T03:16:00.410Z,4.13
2022-09-07T03:18:28.675Z,4.50
2022-09-07T03:20:56.577Z,3.92
2022-09-07T03:23:23.881Z,4.13
2022-09-07T03:25:51.181Z,3.50
2022-09-07T03:28:18.467Z,3.80
2022-09-07T03:30:47.630Z,4.10
2022-09-07T03:33:18.958Z,4.10
2022-09-07T03:35:56.692Z,4.40
2022-09-07T03:38:24.071Z,3.97
2022-09-07T03:40:59.737Z,3.80
2022-09-07T03:43:27.424Z,4.30
2022-09-07T03:46:02.335Z,3.95
2022-09-07T03:48:33.965Z,4.25
2022-09-07T03:51:07.226Z,3.90
2022-09-07T03:53:37.076Z,4.70
2022-09-07T03:56:07.471Z,5.57
2022-09-07T03:58:35.680Z,5.70
2022-09-07T04:01:11.446Z,6.18
2022-09-07T04:03:39.883Z,6.68
2022-09-07T04:06:07.385Z,8.02
2022-09-07T04:08:36.896Z,7.28
2022-09-07T04:11:06.228Z,7.25
2022-09-07T04:13:35.589Z,8.13
2022-09-07T04:16:21.576Z,7.88
2022-09-07T04:18:50.599Z,8.10
2022-09-07T04:21:23.202Z,6.57
2022-09-07T04:23:50.876Z,7.38
2022-09-07T04:26:26.952Z,7.20
2022-09-07T04:28:54.741Z,8.10
2022-09-07T04:31:22.903Z,7.32
2022-09-07T04:33:51.755Z,7.40
2022-09-07T04:36:20.484Z,7.53
2022-09-07T04:38:48.385Z,7.68
2022-09-07T04:41:18.142Z,7.80
2022-09-07T04:43:46.926Z,6.80
2022-09-07T04:46:24.856Z,7.00
2022-09-07T04:48:54.690Z,6.88
2022-09-07T04:51:23.558Z,7.00
2022-09-07T04:53:52.326Z,7.28
2022-09-07T04:56:20.830Z,7.50
2022-09-07T04:58:48.777Z,6.75
2022-09-07T05:01:20.551Z,7.32
2022-09-07T05:03:49.007Z,6.85
2022-09-07T05:06:18.363Z,6.90
2022-09-07T05:08:50.965Z,7.80
2022-09-07T05:11:21.211Z,7.13
2022-09-07T05:13:50.450Z,6.70
2022-09-07T05:16:23.639Z,6.32
2022-09-07T05:18:52.769Z,6.25
2022-09-07T05:21:25.607Z,6.47
2022-09-07T05:23:54.854Z,5.90
2022-09-07T05:26:24.622Z,6.97
2022-09-07T05:28:52.713Z,6.72
2022-09-07T05:31:22.097Z,6.05
2022-09-07T05:36:41.914Z,6.13
2022-09-07T05:39:09.604Z,5.60
2022-09-07T05:41:36.886Z,4.85
2022-09-07T05:46:52.917Z,5.25
2022-09-07T05:49:20.061Z,4.70
2022-09-07T05:51:48.579Z,4.88
2022-09-07T05:54:15.761Z,4.38
2022-09-07T05:56:44.002Z,4.72
2022-09-07T05:59:11.298Z,4.60
2022-09-07T06:01:38.674Z,4.60
2022-09-07T06:04:06.102Z,4.20
2022-09-07T06:06:38.533Z,3.83
2022-09-07T06:09:06.970Z,4.15
2022-09-07T06:11:34.136Z,4.30
2022-09-07T06:14:01.398Z,4.68
2022-09-07T06:16:29.194Z,4.65
2022-09-07T06:18:56.409Z,4.47
2022-09-07T06:21:24.359Z,4.40
2022-09-07T06:23:52.026Z,3.75
2022-09-07T06:26:19.986Z,4.43
2022-09-07T06:28:52.140Z,3.47
2022-09-07T06:31:23.471Z,3.63
2022-09-07T06:33:52.016Z,3.22
2022-09-07T06:36:21.365Z,3.63
2022-09-07T06:38:49.732Z,4.43
2022-09-07T06:44:09.357Z,3.47
2022-09-07T06:49:24.630Z,3.55
2022-09-07T06:51:52.155Z,3.78
2022-09-07T06:57:09.667Z,3.80
2022-09-07T06:59:37.718Z,3.72
2022-09-07T07:02:06.069Z,4.30
2022-09-07T07:04:39.455Z,4.60
2022-09-07T07:07:12.014Z,3.92
2022-09-07T07:09:39.379Z,3.95
2022-09-07T07:12:06.850Z,4.20
2022-09-07T07:14:37.241Z,4.47
2022-09-07T07:17:07.109Z,4.50
2022-09-07T07:19:36.758Z,3.95
2022-09-07T07:22:29.509Z,3.97
2022-09-07T07:24:51.175Z,4.07
2022-09-07T07:27:18.274Z,3.92
2022-09-07T07:29:46.328Z,3.58
2022-09-07T07:32:13.511Z,4.13
2022-09-07T07:34:40.847Z,4.28
2022-09-07T07:37:08.068Z,4.00
2022-09-07T07:42:22.646Z,3.58
2022-09-07T07:44:49.992Z,3.78
2022-09-07T07:47:37.093Z,4.22
2022-09-07T07:53:41.074Z,4.25
2022-09-07T07:55:43.613Z,3.90
2022-09-07T07:58:11.274Z,3.88
2022-09-07T08:00:53.834Z,4.10
2022-09-07T08:03:22.954Z,4.00
2022-09-07T08:05:50.062Z,3.97
2022-09-07T08:08:17.468Z,3.83
2022-09-07T08:10:46.196Z,4.20
2022-09-07T08:13:14.406Z,4.60
2022-09-07T08:15:47.737Z,3.75
2022-09-07T08:18:17.258Z,5.07
2022-09-07T08:20:44.764Z,5.00
2022-09-07T08:23:12.025Z,4.57
2022-09-07T08:25:39.637Z,4.70
2022-09-07T08:28:07.032Z,4.85
2022-09-07T08:30:34.091Z,4.43
2022-09-07T08:33:01.364Z,4.45
2022-09-07T08:35:28.445Z,4.65
2022-09-07T08:37:55.520Z,5.00
2022-09-07T08:40:22.673Z,4.45
2022-09-07T08:43:03.484Z,5.32
2022-09-07T08:45:51.929Z,5.20
2022-09-07T08:48:29.430Z,4.50
2022-09-07T08:51:10.086Z,5.00
2022-09-07T08:53:44.890Z,4.90
2022-09-07T08:56:24.491Z,4.65
2022-09-07T08:58:56.119Z,4.60
2022-09-07T09:01:36.702Z,5.00
2022-09-07T09:04:17.893Z,4.50
2022-09-07T09:06:54.355Z,5.10
2022-09-07T09:09:51.985Z,4.88
2022-09-07T09:12:40.673Z,4.80
2022-09-07T09:15:21.692Z,5.03
2022-09-07T09:18:27.297Z,4.80
2022-09-07T09:20:57.050Z,5.63
2022-09-07T09:23:40.730Z,4.95
2022-09-07T09:26:14.222Z,4.72
2022-09-07T09:28:41.869Z,4.53
2022-09-07T09:31:34.476Z,4.78
2022-09-07T09:34:14.782Z,4.90
2022-09-07T09:37:02.377Z,5.55
2022-09-07T09:39:34.682Z,5.35
2022-09-07T09:42:26.543Z,4.57
2022-09-07T09:44:54.278Z,4.82
2022-09-07T09:47:32.843Z,4.63
2022-09-07T09:50:06.923Z,5.50
2022-09-07T09:52:47.708Z,4.65
2022-09-07T09:55:35.501Z,5.68
2022-09-07T10:06:21.232Z,4.88
2022-09-07T10:09:02.618Z,4.55
2022-09-07T10:14:34.368Z,4.38
2022-09-07T10:17:10.453Z,4.65
2022-09-07T10:19:41.406Z,4.50
2022-09-07T10:22:34.746Z,4.22
2022-09-07T10:25:04.407Z,4.60
2022-09-07T10:27:38.997Z,4.68
2022-09-07T10:30:17.005Z,4.28
2022-09-07T10:33:06.744Z,4.78
2022-09-07T10:35:40.575Z,4.85
2022-09-07T10:38:19.886Z,4.47
2022-09-07T10:41:10.509Z,4.57
2022-09-07T10:43:46.353Z,4.50
2022-09-07T10:52:18.531Z,4.88
2022-09-07T10:55:26.627Z,4.65
2022-09-07T11:01:51.426Z,4.65
2022-09-07T11:04:18.687Z,4.90
2022-09-07T11:07:03.311Z,4.03
2022-09-07T11:09:48.431Z,3.42
2022-09-07T11:12:22.057Z,4.00
2022-09-07T11:15:14.043Z,3.97
2022-09-07T11:17:52.826Z,3.35
2022-09-07T11:20:55.206Z,4.10
2022-09-07T11:23:40.314Z,4.10
2022-09-07T11:26:13.706Z,4.70
2022-09-07T11:31:38.150Z,3.42
2022-09-07T11:34:26.372Z,3.83
2022-09-07T11:37:18.086Z,3.75
2022-09-07T11:40:12.776Z,3.85
2022-09-07T11:43:03.109Z,3.55
2022-09-07T11:45:52.118Z,3.70
2022-09-07T11:48:30.408Z,4.32
2022-09-07T11:51:21.842Z,4.50
2022-09-07T11:53:57.583Z,3.78
2022-09-07T11:56:37.166Z,4.18
2022-09-07T11:59:27.158Z,3.83
2022-09-07T12:02:36.698Z,3.60
2022-09-07T12:05:18.146Z,4.15
2022-09-07T12:07:48.270Z,3.80
2022-09-07T12:10:36.410Z,4.30
2022-09-07T12:13:40.994Z,3.80
2022-09-07T12:16:11.090Z,3.85
2022-09-07T12:19:10.371Z,3.72
2022-09-07T12:21:51.415Z,4.00
2022-09-07T12:24:33.766Z,4.07
2022-09-07T12:27:02.923Z,3.80
2022-09-07T12:29:31.626Z,4.07
2022-09-07T12:32:53.756Z,4.47
2022-09-07T12:34:58.058Z,3.83
2022-09-07T12:37:37.647Z,4.10
2022-09-07T12:40:33.446Z,4.22
2022-09-07T12:43:13.057Z,3.95
2022-09-07T12:45:40.325Z,3.72
2022-09-07T12:48:16.711Z,4.07
2022-09-07T12:51:10.438Z,4.10
2022-09-07T12:53:47.262Z,4.43
2022-09-07T12:56:29.739Z,4.20
2022-09-07T12:59:17.323Z,4.00
2022-09-07T13:02:04.146Z,4.22
2022-09-07T13:04:48.734Z,4.13
2022-09-07T13:07:36.683Z,4.20
2022-09-07T13:10:24.987Z,4.47
2022-09-07T13:12:53.385Z,4.60
2022-09-07T13:15:41.834Z,4.97
2022-09-07T13:18:29.046Z,4.68
2022-09-07T13:21:08.468Z,4.43
2022-09-07T13:23:40.727Z,4.25
2022-09-07T13:26:11.160Z,4.78
2022-09-07T13:29:02.898Z,4.68
2022-09-07T13:31:42.282Z,4.35
2022-09-07T13:34:32.556Z,4.53
2022-09-07T13:37:02.069Z,5.20
2022-09-07T13:39:32.306Z,5.65
2022-09-07T13:42:00.913Z,5.20
2022-09-07T13:44:32.603Z,5.20
2022-09-07T13:47:18.302Z,5.20
2022-09-07T13:50:13.734Z,4.68
2022-09-07T13:52:52.927Z,5.18
2022-09-07T13:55:34.260Z,5.13
2022-09-07T13:58:11.928Z,5.05
2022-09-07T14:01:10.176Z,4.93
2022-09-07T14:03:43.864Z,5.30
2022-09-07T14:06:32.315Z,4.85
2022-09-07T14:09:05.169Z,5.47
2022-09-07T14:11:52.982Z,5.30
2022-09-07T14:14:22.937Z,5.20
2022-09-07T14:17:01.841Z,5.53
2022-09-07T14:19:42.710Z,5.30
2022-09-07T14:22:19.833Z,4.95
2022-09-07T14:24:53.068Z,5.43
2022-09-07T14:27:31.787Z,5.30
2022-09-07T14:30:22.711Z,5.50
2022-09-07T14:32:52.774Z,5.03
2022-09-07T14:35:22.794Z,5.30
2022-09-07T14:37:51.035Z,4.97
2022-09-07T14:40:22.186Z,6.00
2022-09-07T14:42:51.138Z,5.45
2022-09-07T14:45:24.281Z,5.47
2022-09-07T14:47:54.164Z,5.47
2022-09-07T14:50:26.776Z,5.50
2022-09-07T14:55:44.859Z,5.30
2022-09-07T14:58:14.884Z,5.28
2022-09-07T15:00:45.967Z,6.43
2022-09-07T15:03:33.190Z,5.63
2022-09-07T15:06:02.101Z,5.72
2022-09-07T15:08:43.643Z,6.13
2022-09-07T15:11:35.400Z,6.30
2022-09-07T15:14:10.570Z,5.80
2022-09-07T15:16:44.547Z,5.50
2022-09-07T15:19:18.733Z,5.65
2022-09-07T15:21:46.058Z,5.93
2022-09-07T15:24:13.216Z,6.25
2022-09-07T15:29:32.985Z,5.82
2022-09-07T15:32:04.504Z,6.05
2022-09-07T15:34:33.208Z,6.40
2022-09-07T15:37:02.418Z,5.38
2022-09-07T15:39:31.277Z,5.80
2022-09-07T15:42:00.798Z,5.20
2022-09-07T15:44:46.493Z,5.90
2022-09-07T15:50:00.780Z,6.05
2022-09-07T15:52:28.134Z,5.80
2022-09-07T15:54:58.564Z,5.07
2022-09-07T16:00:13.474Z,5.47
2022-09-07T16:05:31.150Z,5.05
2022-09-07T16:10:53.481Z,5.55
2022-09-07T16:13:24.215Z,5.20
2022-09-07T16:15:51.909Z,4.75
2022-09-07T16:18:19.425Z,5.43
2022-09-07T16:20:47.528Z,4.95
2022-09-07T16:23:19.295Z,5.38
2022-09-07T16:26:00.712Z,4.93
2022-09-07T16:28:29.096Z,5.78
2022-09-07T16:30:56.808Z,5.43
2022-09-07T16:33:31.487Z,5.93
2022-09-07T16:36:07.346Z,5.50
2022-09-07T16:38:50.901Z,5.65
2022-09-07T16:41:29.509Z,5.53
2022-09-07T16:43:56.854Z,5.22
2022-09-07T16:46:26.935Z,5.43
2022-09-07T16:48:54.808Z,5.60
2022-09-07T16:51:23.367Z,6.00
2022-09-07T16:53:52.321Z,5.80
2022-09-07T16:56:21.871Z,5.72
2022-09-07T16:58:56.027Z,5.53
2022-09-07T17:01:28.800Z,5.78
2022-09-07T17:03:56.482Z,5.63
2022-09-07T17:06:37.745Z,6.70
2022-09-07T17:09:05.257Z,5.55
2022-09-07T17:11:34.707Z,5.68
2022-09-07T17:14:02.674Z,5.18
2022-09-07T17:16:35.466Z,5.75
2022-09-07T17:21:51.991Z,6.10
2022-09-07T17:24:19.706Z,6.25
2022-09-07T17:26:47.969Z,5.68
2022-09-07T17:29:15.513Z,6.22
2022-09-07T17:34:30.991Z,5.88
2022-09-07T17:37:00.517Z,6.90
2022-09-07T17:39:28.363Z,5.93
2022-09-07T17:41:55.550Z,6.13
2022-09-07T17:44:23.680Z,5.95
2022-09-07T17:46:52.275Z,6.55
2022-09-07T17:49:19.640Z,6.55
2022-09-07T17:51:47.089Z,6.47
2022-09-07T17:54:16.883Z,5.90
2022-09-07T17:56:44.791Z,5.75
2022-09-07T18:01:59.878Z,5.75
2022-09-07T18:04:36.354Z,6.00
2022-09-07T18:07:03.706Z,6.28
2022-09-07T18:09:30.955Z,5.68
2022-09-07T18:11:58.429Z,6.07
2022-09-07T18:14:25.716Z,5.30
2022-09-07T18:16:53.200Z,5.38
2022-09-07T18:19:20.521Z,6.63
2022-09-07T18:21:48.639Z,6.22
2022-09-07T18:24:21.970Z,5.95
2022-09-07T18:26:52.281Z,6.28
2022-09-07T18:29:29.361Z,6.18
2022-09-07T18:31:59.409Z,6.53
2022-09-07T18:34:26.644Z,6.03
2022-09-07T18:36:55.034Z,6.40
2022-09-07T18:39:23.020Z,5.90
2022-09-07T18:41:50.268Z,6.93
2022-09-07T18:47:08.897Z,6.95
2022-09-07T18:49:36.257Z,6.70
2022-09-07T18:54:52.480Z,7.45
2022-09-07T18:57:19.697Z,7.05
2022-09-07T18:59:47.083Z,6.72
2022-09-07T19:02:14.543Z,6.20
2022-09-07T19:07:30.181Z,6.68
2022-09-07T19:09:57.668Z,12.25
2022-09-07T19:12:25.141Z,7.28
2022-09-07T19:14:52.539Z,6.97
2022-09-07T19:17:20.027Z,6.88
2022-09-07T19:19:48.545Z,6.80
2022-09-07T19:22:18.886Z,6.90
2022-09-07T19:24:47.170Z,8.05
2022-09-07T19:27:14.570Z,6.70
2022-09-07T19:29:42.837Z,7.88
2022-09-07T19:32:13.487Z,6.53
2022-09-07T19:34:44.502Z,6.85
2022-09-07T19:37:15.101Z,7.38
2022-09-07T19:39:43.307Z,7.80
2022-09-07T19:42:15.497Z,7.72
2022-09-07T19:44:42.784Z,8.27
2022-09-07T19:47:10.777Z,7.43
2022-09-07T19:49:38.169Z,7.95
2022-09-07T19:52:06.270Z,8.15
2022-09-07T19:54:36.720Z,8.88
2022-09-07T19:57:10.746Z,9.00
2022-09-07T19:59:40.171Z,9.02
2022-09-07T20:02:08.740Z,8.25
2022-09-07T20:04:37.611Z,7.88
2022-09-07T20:07:12.371Z,8.15
2022-09-07T20:09:41.953Z,8.90
2022-09-07T20:12:10.532Z,7.82
2022-09-07T20:14:37.960Z,8.20
2022-09-07T20:17:05.639Z,7.88
2022-09-07T20:19:34.506Z,9.27
2022-09-07T20:22:02.008Z,9.40
2022-09-07T20:24:29.781Z,9.50
2022-09-07T20:26:57.839Z,9.07
2022-09-07T20:29:28.194Z,9.77
2022-09-07T20:32:03.125Z,9.38
2022-09-07T20:34:33.899Z,9.52
2022-09-07T20:37:02.878Z,9.52
2022-09-07T20:39:32.745Z,10.23
2022-09-07T20:44:33.378Z,8.48
2022-09-07T20:47:03.119Z,8.68
2022-09-07T20:49:32.050Z,8.15
2022-09-07T20:51:59.336Z,8.23
2022-09-07T20:54:27.966Z,8.77
2022-09-07T20:57:02.105Z,8.98
2022-09-07T20:59:32.715Z,8.43
2022-09-07T21:02:00.381Z,8.55
2022-09-07T21:04:29.166Z,8.43
2022-09-07T21:06:56.633Z,7.50
2022-09-07T21:09:25.283Z,7.40
2022-09-07T21:11:56.757Z,7.45
2022-09-07T21:14:26.784Z,7.90
2022-09-07T21:16:54.078Z,6.97
2022-09-07T21:19:21.510Z,7.03
2022-09-07T21:21:48.643Z,7.18
2022-09-07T21:24:21.571Z,6.88
2022-09-07T21:26:50.442Z,6.97
2022-09-07T21:29:25.912Z,7.05
2022-09-07T21:31:54.835Z,6.32
2022-09-07T21:34:22.822Z,5.72
2022-09-07T21:36:51.567Z,5.93
2022-09-07T21:39:19.409Z,6.13
2022-09-07T21:41:47.971Z,5.75
2022-09-07T21:44:16.365Z,6.07
2022-09-07T21:46:44.484Z,6.47
2022-09-07T21:49:11.753Z,6.78
2022-09-07T21:51:39.089Z,6.13
2022-09-07T21:54:06.403Z,6.95
2022-09-07T21:56:33.804Z,6.35
2022-09-07T21:59:02.765Z,6.57
2022-09-07T22:01:31.711Z,5.63
2022-09-07T22:04:01.471Z,6.07
2022-09-07T22:06:30.054Z,5.97
2022-09-07T22:08:58.518Z,5.70
2022-09-07T22:11:28.244Z,5.88
2022-09-07T22:14:00.778Z,5.97
2022-09-07T22:16:28.314Z,5.60
2022-09-07T22:18:56.053Z,6.22
2022-09-07T22:21:25.239Z,5.93
2022-09-07T22:23:56.113Z,5.68
2022-09-07T22:26:26.804Z,5.55
2022-09-07T22:28:55.032Z,5.50
2022-09-07T22:31:31.859Z,5.60
2022-09-07T22:34:00.852Z,5.32
2022-09-07T22:36:34.211Z,5.15
2022-09-07T22:39:05.280Z,5.72
2022-09-07T22:41:35.125Z,5.50
2022-09-07T22:44:02.509Z,4.60
2022-09-07T22:46:31.872Z,4.60
2022-09-07T22:48:59.562Z,4.85
2022-09-07T22:51:27.728Z,4.55
2022-09-07T22:53:56.223Z,4.95
2022-09-07T22:56:26.229Z,4.80
2022-09-07T22:58:59.351Z,4.68
2022-09-07T23:01:28.124Z,4.47
2022-09-07T23:03:55.860Z,4.88
2022-09-07T23:06:27.610Z,4.65
2022-09-07T23:08:57.090Z,5.20
2022-09-07T23:11:25.399Z,4.30
2022-09-07T23:13:54.304Z,4.95
2022-09-07T23:16:22.389Z,4.68
2022-09-07T23:18:49.983Z,4.20
2022-09-07T23:21:18.014Z,4.45
2022-09-07T23:23:52.665Z,4.13
2022-09-07T23:26:21.680Z,4.22
2022-09-07T23:28:56.624Z,4.38
2022-09-07T23:31:25.317Z,4.00
2022-09-07T23:33:52.603Z,4.72
2022-09-07T23:36:20.389Z,4.78
2022-09-07T23:38:47.948Z,4.53
2022-09-07T23:41:17.529Z,5.25
2022-09-07T23:43:44.906Z,4.95
2022-09-07T23:46:13.967Z,5.07
2022-09-07T23:48:44.337Z,4.30
2022-09-07T23:51:12.637Z,5.57
2022-09-07T23:53:40.471Z,4.85
2022-09-07T23:56:08.122Z,4.95
2022-09-07T23:58:35.232Z,4.70
